In Rescue
 
Open Full Screen Window  High Contrast Mode
Wind Gusting 00 knots
09
October 25, 2021 2:35 PM CDT
Weather Information
Wind Direction
  100 °
Wind Speed
  09 kt (10 mph)
Wind Gust
  00 kt (0 mph)
Altimeter
30.08 in
Visibility
10 SM
Temperature
11° C
52° F
Dewpoint
01° C
34° F
Humidity
50%
1hr Rain Fall
00.00 in.
24hr Rain Fall
00.00 in.
Sky Condition
Clear
VFR

METAR KMWM 251935Z AUTO 10009KT 10SM CLR 11/01 A3008 RMK AO2

FAA Disclaimer: The data displayed is for advisory purposes only and is not to be used for flight planning or operations.